Terminal Aerodrome Forecast
Issued by NWS

Home | Current Version | Previous Version | Text Only | Print | Product List | Glossary On
Versions: 1 2 3 4 5 6 7 8 9 10 11 12
000
FTUS44 KLIX 271100
TAFMCB
TAF
KMCB 271123Z 2712/2812 33009KT P6SM SKC
     FM271500 35010KT P6SM SKC
     FM272300 36005KT P6SM SKC=

USA.gov is the U.S. government's official web portal to all federal, state and local government web resources and services.